createdAt,value
2018-01-15T00:00:19.205Z,88.36
2018-01-15T00:01:19.179Z,87.70
2018-01-15T00:02:19.149Z,87.51
2018-01-15T00:03:19.125Z,87.79
2018-01-15T00:04:19.100Z,87.70
2018-01-15T00:05:19.069Z,87.79
2018-01-15T00:06:19.039Z,87.98
2018-01-15T00:07:19.018Z,87.79
2018-01-15T00:08:18.999Z,88.17
2018-01-15T00:09:18.968Z,87.79
2018-01-15T00:10:18.938Z,88.17
2018-01-15T00:11:18.909Z,87.79
2018-01-15T00:12:18.882Z,87.98
2018-01-15T00:13:18.859Z,88.45
2018-01-15T00:14:18.831Z,87.79
2018-01-15T00:15:18.805Z,87.60
2018-01-15T00:16:18.777Z,88.07
2018-01-15T00:17:18.760Z,88.26
2018-01-15T00:18:18.751Z,87.60
2018-01-15T00:19:18.696Z,87.79
2018-01-15T00:20:18.678Z,88.17
2018-01-15T00:21:18.641Z,88.17
2018-01-15T00:22:18.615Z,88.07
2018-01-15T00:23:18.589Z,88.36
2018-01-15T00:24:18.570Z,88.45
2018-01-15T00:25:18.536Z,88.36
2018-01-15T00:26:18.509Z,88.17
2018-01-15T00:27:18.485Z,88.26
2018-01-15T00:28:18.460Z,88.26
2018-01-15T00:29:18.428Z,88.36
2018-01-15T00:30:18.485Z,88.17
2018-01-15T00:31:18.376Z,88.36
2018-01-15T00:32:18.348Z,88.45
2018-01-15T00:33:18.338Z,88.17
2018-01-15T00:34:18.303Z,88.45
2018-01-15T00:35:18.277Z,88.26
2018-01-15T00:36:18.246Z,88.74
2018-01-15T00:37:18.214Z,88.64
2018-01-15T00:38:18.189Z,88.83
2018-01-15T00:39:18.165Z,89.31
2018-01-15T00:40:18.136Z,88.64
2018-01-15T00:41:18.108Z,89.40
2018-01-15T00:42:18.091Z,89.02
2018-01-15T00:43:18.059Z,89.21
2018-01-15T00:44:18.028Z,89.12
2018-01-15T00:45:18.003Z,89.21
2018-01-15T00:46:17.975Z,88.93
2018-01-15T00:47:17.948Z,89.02
2018-01-15T00:48:17.923Z,89.12
2018-01-15T00:49:17.895Z,88.93
2018-01-15T00:50:17.868Z,88.64
2018-01-15T00:51:17.842Z,88.83
2018-01-15T00:52:17.818Z,89.21
2018-01-15T00:53:17.791Z,88.64
2018-01-15T00:54:17.762Z,89.21
2018-01-15T00:55:17.737Z,89.21
2018-01-15T00:56:17.712Z,88.93
2018-01-15T00:57:17.681Z,89.12
2018-01-15T00:58:17.676Z,89.21
2018-01-15T00:59:17.645Z,88.83
2018-01-15T01:00:17.608Z,89.31
2018-01-15T01:01:17.609Z,89.12
2018-01-15T01:02:17.551Z,89.87
2018-01-15T01:03:17.526Z,89.78
2018-01-15T01:04:17.501Z,90.06
2018-01-15T01:05:17.476Z,89.97
2018-01-15T01:06:17.444Z,89.78
2018-01-15T01:07:17.419Z,89.87
2018-01-15T01:08:17.393Z,89.69
2018-01-15T01:09:17.393Z,89.69
2018-01-15T01:10:17.360Z,90.06
2018-01-15T01:11:17.311Z,89.69
2018-01-15T01:12:17.303Z,89.78
2018-01-15T01:13:17.259Z,89.78
2018-01-15T01:14:17.232Z,89.78
2018-01-15T01:15:17.210Z,90.06
2018-01-15T01:16:17.190Z,90.06
2018-01-15T01:17:17.154Z,90.44
2018-01-15T01:18:17.128Z,90.06
2018-01-15T01:19:17.100Z,90.16
2018-01-15T01:20:17.098Z,90.25
2018-01-15T01:21:17.048Z,90.34
2018-01-15T01:22:17.024Z,90.34
2018-01-15T01:23:17.002Z,90.16
2018-01-15T01:24:16.971Z,90.34
2018-01-15T01:25:16.955Z,90.53
2018-01-15T01:26:16.918Z,90.16
2018-01-15T01:27:16.897Z,90.16
2018-01-15T01:28:16.868Z,90.25
2018-01-15T01:29:16.847Z,90.16
2018-01-15T01:30:16.812Z,90.53
2018-01-15T01:31:16.791Z,90.72
2018-01-15T01:32:16.763Z,90.25
2018-01-15T01:33:16.737Z,90.91
2018-01-15T01:34:16.787Z,90.34
2018-01-15T01:35:16.681Z,90.72
2018-01-15T01:36:16.664Z,90.63
2018-01-15T01:37:16.708Z,90.72
2018-01-15T01:38:16.604Z,91.01
2018-01-15T01:39:16.578Z,90.91
2018-01-15T01:40:16.603Z,90.72
2018-01-15T01:41:16.526Z,91.01
2018-01-15T01:42:16.498Z,91.20
2018-01-15T01:43:16.502Z,91.01
2018-01-15T01:44:16.455Z,90.82
2018-01-15T01:45:16.423Z,90.82
2018-01-15T01:46:16.396Z,91.20
2018-01-15T01:47:16.367Z,90.82
2018-01-15T01:48:16.341Z,90.91
2018-01-15T01:49:16.315Z,90.72
2018-01-15T01:50:16.290Z,91.10
2018-01-15T01:51:16.266Z,91.20
2018-01-15T01:52:16.236Z,91.20
2018-01-15T01:53:16.212Z,91.10
2018-01-15T01:54:16.182Z,91.29
2018-01-15T01:55:16.156Z,91.58
2018-01-15T01:56:16.146Z,91.20
2018-01-15T01:57:16.105Z,90.63
2018-01-15T01:58:16.082Z,91.10
2018-01-15T01:59:16.054Z,91.20
2018-01-15T02:00:16.028Z,91.20
2018-01-15T02:01:16.004Z,90.91
2018-01-15T02:02:15.976Z,90.82
2018-01-15T02:03:15.953Z,91.20
2018-01-15T02:04:15.926Z,91.29
2018-01-15T02:05:15.912Z,91.20
2018-01-15T02:06:15.871Z,90.72
2018-01-15T02:07:15.844Z,91.20
2018-01-15T02:08:15.823Z,91.01
2018-01-15T02:09:15.791Z,91.20
2018-01-15T02:10:15.766Z,91.67
2018-01-15T02:11:15.740Z,91.77
2018-01-15T02:12:15.716Z,91.48
2018-01-15T02:13:15.804Z,91.58
2018-01-15T02:14:15.660Z,91.48
2018-01-15T02:15:15.636Z,91.96
2018-01-15T02:16:15.723Z,91.86
2018-01-15T02:17:15.584Z,91.96
2018-01-15T02:18:15.560Z,91.67
2018-01-15T02:19:15.541Z,91.67
2018-01-15T02:20:15.509Z,92.43
2018-01-15T02:21:15.481Z,92.14
2018-01-15T02:22:15.460Z,91.77
2018-01-15T02:23:15.429Z,92.14
2018-01-15T02:24:15.405Z,91.58
2018-01-15T02:25:15.379Z,91.96
2018-01-15T02:26:15.360Z,91.29
2018-01-15T02:27:15.323Z,91.67
2018-01-15T02:28:15.301Z,91.10
2018-01-15T02:29:15.274Z,91.67
2018-01-15T02:30:15.249Z,90.91
2018-01-15T02:31:15.223Z,91.01
2018-01-15T02:32:15.199Z,91.39
2018-01-15T02:33:15.172Z,91.10
2018-01-15T02:34:15.143Z,90.16
2018-01-15T02:35:15.126Z,90.06
2018-01-15T02:36:15.100Z,90.16
2018-01-15T02:37:15.068Z,89.97
2018-01-15T02:38:15.092Z,89.78
2018-01-15T02:39:15.017Z,89.87
2018-01-15T02:40:14.990Z,90.25
2018-01-15T02:41:15.052Z,90.30
2018-01-15T02:42:14.947Z,90.44
2018-01-15T02:43:14.913Z,90.34
2018-01-15T02:44:14.886Z,89.87
2018-01-15T02:45:14.870Z,89.63
2018-01-15T02:46:14.837Z,89.92
2018-01-15T02:47:14.813Z,89.73
2018-01-15T02:48:14.795Z,89.63
2018-01-15T02:49:14.773Z,89.73
2018-01-15T02:50:14.734Z,90.01
2018-01-15T02:51:14.706Z,89.59
2018-01-15T02:52:14.800Z,89.63
2018-01-15T02:53:14.650Z,90.11
2018-01-15T02:54:14.630Z,90.34
2018-01-15T02:55:14.660Z,90.39
2018-01-15T02:56:14.580Z,90.25
2018-01-15T02:57:14.556Z,90.34
2018-01-15T02:58:14.529Z,90.39
2018-01-15T02:59:14.505Z,90.44
2018-01-15T03:00:14.477Z,90.53
2018-01-15T03:01:14.454Z,90.44
2018-01-15T03:02:14.426Z,90.63
2018-01-15T03:03:14.400Z,90.53
2018-01-15T03:04:14.376Z,90.63
2018-01-15T03:05:14.354Z,90.34
2018-01-15T03:06:14.338Z,90.39
2018-01-15T03:07:14.300Z,90.01
2018-01-15T03:08:14.272Z,89.82
2018-01-15T03:09:14.250Z,89.73
2018-01-15T03:10:14.227Z,89.44
2018-01-15T03:11:14.203Z,89.73
2018-01-15T03:12:14.172Z,90.01
2018-01-15T03:13:14.145Z,89.73
2018-01-15T03:14:14.118Z,88.87
2018-01-15T03:15:14.185Z,89.63
2018-01-15T03:16:14.073Z,89.92
2018-01-15T03:17:14.149Z,90.01
2018-01-15T03:18:14.020Z,89.73
2018-01-15T03:19:13.993Z,89.92
2018-01-15T03:20:14.009Z,90.01
2018-01-15T03:21:13.949Z,89.73
2018-01-15T03:22:13.925Z,89.82
2018-01-15T03:23:13.894Z,89.35
2018-01-15T03:24:13.866Z,89.82
2018-01-15T03:25:13.852Z,89.35
2018-01-15T03:26:13.817Z,89.25
2018-01-15T03:27:13.792Z,89.35
2018-01-15T03:28:13.766Z,88.97
2018-01-15T03:29:13.740Z,89.54
2018-01-15T03:30:13.712Z,89.73
2018-01-15T03:31:13.690Z,89.73
2018-01-15T03:32:13.665Z,89.44
2018-01-15T03:33:13.640Z,89.54
2018-01-15T03:34:13.613Z,89.35
2018-01-15T03:35:13.585Z,89.06
2018-01-15T03:36:13.561Z,89.25
2018-01-15T03:37:13.538Z,89.73
2018-01-15T03:38:13.510Z,89.16
2018-01-15T03:39:13.485Z,89.63
2018-01-15T03:40:13.459Z,89.63
2018-01-15T03:41:13.441Z,89.54
2018-01-15T03:42:13.410Z,89.35
2018-01-15T03:43:13.383Z,89.16
2018-01-15T03:44:13.359Z,89.06
2018-01-15T03:45:13.330Z,88.78
2018-01-15T03:46:13.308Z,88.97
2018-01-15T03:47:13.280Z,88.97
2018-01-15T03:48:13.266Z,89.06
2018-01-15T03:49:13.230Z,89.35
2018-01-15T03:50:13.207Z,88.49
2018-01-15T03:51:13.180Z,88.59
2018-01-15T03:52:13.157Z,89.35
2018-01-15T03:53:13.282Z,89.35
2018-01-15T03:54:13.108Z,88.87
2018-01-15T03:55:13.078Z,89.06
2018-01-15T03:56:13.068Z,89.06
2018-01-15T03:57:13.027Z,89.06
2018-01-15T03:58:13.001Z,89.92
2018-01-15T03:59:12.981Z,90.01
2018-01-15T04:00:12.959Z,89.82
2018-01-15T04:01:12.926Z,89.82
2018-01-15T04:02:12.899Z,90.01
2018-01-15T04:03:12.874Z,89.92
2018-01-15T04:04:12.848Z,89.92
2018-01-15T04:05:12.829Z,89.73
2018-01-15T04:06:12.795Z,89.92
2018-01-15T04:07:12.775Z,90.11
2018-01-15T04:08:12.745Z,89.92
2018-01-15T04:09:12.719Z,89.82
2018-01-15T04:10:12.713Z,90.11
2018-01-15T04:11:12.671Z,90.01
2018-01-15T04:12:12.645Z,90.01
2018-01-15T04:13:12.618Z,90.01
2018-01-15T04:14:12.595Z,90.01
2018-01-15T04:15:12.568Z,89.82
2018-01-15T04:16:12.545Z,90.01
2018-01-15T04:17:12.513Z,90.30
2018-01-15T04:18:12.520Z,89.92
2018-01-15T04:19:12.464Z,90.30
2018-01-15T04:20:12.488Z,90.30
2018-01-15T04:21:12.413Z,89.82
2018-01-15T04:22:12.388Z,90.11
2018-01-15T04:23:12.358Z,90.01
2018-01-15T04:24:12.336Z,90.30
2018-01-15T04:25:12.305Z,89.92
2018-01-15T04:26:12.286Z,90.11
2018-01-15T04:27:12.262Z,90.30
2018-01-15T04:28:12.233Z,89.92
2018-01-15T04:29:12.309Z,89.63
2018-01-15T04:30:12.180Z,90.11
2018-01-15T04:31:12.152Z,90.01
2018-01-15T04:32:12.145Z,89.63
2018-01-15T04:33:12.101Z,89.82
2018-01-15T04:34:12.074Z,89.54
2018-01-15T04:35:12.053Z,89.82
2018-01-15T04:36:12.023Z,89.73
2018-01-15T04:37:12.004Z,89.82
2018-01-15T04:38:11.971Z,90.01
2018-01-15T04:39:11.946Z,90.01
2018-01-15T04:40:11.923Z,90.20
2018-01-15T04:41:11.894Z,90.30
2018-01-15T04:42:11.865Z,89.92
2018-01-15T04:43:11.840Z,90.11
2018-01-15T04:44:11.819Z,90.01
2018-01-15T04:45:11.799Z,90.01
2018-01-15T04:46:11.765Z,90.01
2018-01-15T04:47:11.743Z,90.30
2018-01-15T04:48:11.709Z,90.20
2018-01-15T04:49:11.685Z,90.11
2018-01-15T04:50:11.661Z,89.82
2018-01-15T04:51:11.631Z,89.92
2018-01-15T04:52:11.607Z,89.92
2018-01-15T04:53:11.588Z,89.92
2018-01-15T04:54:11.562Z,90.01
2018-01-15T04:55:11.527Z,90.11
2018-01-15T04:56:11.500Z,90.11
2018-01-15T04:57:11.488Z,90.11
2018-01-15T04:58:11.449Z,90.11
2018-01-15T04:59:11.424Z,90.06
2018-01-15T05:00:11.444Z,90.20
2018-01-15T05:01:11.371Z,90.20
2018-01-15T05:02:11.348Z,90.01
2018-01-15T05:03:11.324Z,90.06
2018-01-15T05:04:11.297Z,90.30
2018-01-15T05:05:11.314Z,90.44
2018-01-15T05:06:11.249Z,90.20
2018-01-15T05:07:11.218Z,90.20
2018-01-15T05:08:11.197Z,90.39
2018-01-15T05:09:11.166Z,90.25
2018-01-15T05:10:11.142Z,90.25
2018-01-15T05:11:11.211Z,90.44
2018-01-15T05:12:11.086Z,90.15
2018-01-15T05:13:11.058Z,90.53
2018-01-15T05:14:11.056Z,90.44
2018-01-15T05:15:11.009Z,90.34
2018-01-15T05:16:10.985Z,90.63
2018-01-15T05:17:10.954Z,90.53
2018-01-15T05:18:10.929Z,90.34
2018-01-15T05:19:10.905Z,90.81
2018-01-15T05:20:10.876Z,90.44
2018-01-15T05:21:10.854Z,90.63
2018-01-15T05:22:10.824Z,90.44
2018-01-15T05:23:10.799Z,90.63
2018-01-15T05:24:10.788Z,90.44
2018-01-15T05:25:10.746Z,90.81
2018-01-15T05:26:10.730Z,90.53
2018-01-15T05:27:10.700Z,90.63
2018-01-15T05:28:10.674Z,90.63
2018-01-15T05:29:10.643Z,90.44
2018-01-15T05:30:10.616Z,90.53
2018-01-15T05:31:10.592Z,90.34
2018-01-15T05:32:10.565Z,90.53
2018-01-15T05:33:10.674Z,90.53
2018-01-15T05:34:10.512Z,90.44
2018-01-15T05:35:10.488Z,90.81
2018-01-15T05:36:10.474Z,90.25
2018-01-15T05:37:10.435Z,90.81
2018-01-15T05:38:10.412Z,90.44
2018-01-15T05:39:10.438Z,90.44
2018-01-15T05:40:10.360Z,90.63
2018-01-15T05:41:10.332Z,90.25
2018-01-15T05:42:10.319Z,90.53
2018-01-15T05:43:10.289Z,90.44
2018-01-15T05:44:10.258Z,90.63
2018-01-15T05:45:10.282Z,90.53
2018-01-15T05:46:10.204Z,90.63
2018-01-15T05:47:10.181Z,90.72
2018-01-15T05:48:10.157Z,90.44
2018-01-15T05:49:10.134Z,90.53
2018-01-15T05:50:10.100Z,91.29
2018-01-15T05:51:10.077Z,91.19
2018-01-15T05:52:10.051Z,91.19
2018-01-15T05:53:10.023Z,91.19
2018-01-15T05:54:10.001Z,91.10
2018-01-15T05:55:09.980Z,91.29
2018-01-15T05:56:09.950Z,91.29
2018-01-15T05:57:09.919Z,90.53
2018-01-15T05:58:09.903Z,90.72
2018-01-15T05:59:09.867Z,90.63
2018-01-15T06:00:09.844Z,90.53
2018-01-15T06:01:09.820Z,90.44
2018-01-15T06:02:09.792Z,90.34
2018-01-15T06:03:09.782Z,90.53
2018-01-15T06:04:09.739Z,90.06
2018-01-15T06:05:09.714Z,89.96
2018-01-15T06:06:09.702Z,90.25
2018-01-15T06:07:09.701Z,89.68
2018-01-15T06:08:09.639Z,89.87
2018-01-15T06:09:09.610Z,89.49
2018-01-15T06:10:09.588Z,89.96
2018-01-15T06:11:09.569Z,90.10
2018-01-15T06:12:09.544Z,90.06
2018-01-15T06:13:09.508Z,89.49
2018-01-15T06:14:09.482Z,89.68
2018-01-15T06:15:09.512Z,89.68
2018-01-15T06:16:09.433Z,89.91
2018-01-15T06:17:09.411Z,90.10
2018-01-15T06:18:09.421Z,89.72
2018-01-15T06:19:09.355Z,89.72
2018-01-15T06:20:09.329Z,88.96
2018-01-15T06:21:09.319Z,89.72
2018-01-15T06:22:09.280Z,90.10
2018-01-15T06:23:09.257Z,89.91
2018-01-15T06:24:09.228Z,90.10
2018-01-15T06:25:09.199Z,89.91
2018-01-15T06:26:09.179Z,89.82
2018-01-15T06:27:09.154Z,89.82
2018-01-15T06:28:09.130Z,89.44
2018-01-15T06:29:09.100Z,89.15
2018-01-15T06:30:09.078Z,89.06
2018-01-15T06:31:09.061Z,88.87
2018-01-15T06:32:09.025Z,89.06
2018-01-15T06:33:08.998Z,88.96
2018-01-15T06:34:08.977Z,88.87
2018-01-15T06:35:08.949Z,89.44
2018-01-15T06:36:08.933Z,89.25
2018-01-15T06:37:08.895Z,89.06
2018-01-15T06:38:08.874Z,89.53
2018-01-15T06:39:08.844Z,89.06
2018-01-15T06:40:08.830Z,89.53
2018-01-15T06:41:08.794Z,89.15
2018-01-15T06:42:08.770Z,89.15
2018-01-15T06:43:08.744Z,89.53
2018-01-15T06:44:08.774Z,89.82
2018-01-15T06:45:08.695Z,89.15
2018-01-15T06:46:08.679Z,89.53
2018-01-15T06:47:08.643Z,89.53
2018-01-15T06:48:08.618Z,89.63
2018-01-15T06:49:08.594Z,90.01
2018-01-15T06:50:08.566Z,89.72
2018-01-15T06:51:08.577Z,89.63
2018-01-15T06:52:08.515Z,89.82
2018-01-15T06:53:08.494Z,89.34
2018-01-15T06:54:08.549Z,88.87
2018-01-15T06:55:08.450Z,89.06
2018-01-15T06:56:08.417Z,88.96
2018-01-15T06:57:08.397Z,89.06
2018-01-15T06:58:08.368Z,89.15
2018-01-15T06:59:08.342Z,89.25
2018-01-15T07:00:08.314Z,89.44
2018-01-15T07:01:08.287Z,89.06
2018-01-15T07:02:08.263Z,88.78
2018-01-15T07:03:08.245Z,89.34
2018-01-15T07:04:08.213Z,89.44
2018-01-15T07:05:08.186Z,89.53
2018-01-15T07:06:08.160Z,89.15
2018-01-15T07:07:08.136Z,89.53
2018-01-15T07:08:08.111Z,89.63
2018-01-15T07:09:08.086Z,89.53
2018-01-15T07:10:08.071Z,89.82
2018-01-15T07:11:08.040Z,89.53
2018-01-15T07:12:08.011Z,88.96
2018-01-15T07:13:07.987Z,90.01
2018-01-15T07:14:07.960Z,90.01
2018-01-15T07:15:07.936Z,90.01
2018-01-15T07:16:07.930Z,89.82
2018-01-15T07:17:07.883Z,90.20
2018-01-15T07:18:07.870Z,89.91
2018-01-15T07:19:07.870Z,90.01
2018-01-15T07:20:07.810Z,90.39
2018-01-15T07:21:07.782Z,90.39
2018-01-15T07:22:07.800Z,89.91
2018-01-15T07:23:07.734Z,90.01
2018-01-15T07:24:07.711Z,90.01
2018-01-15T07:25:07.678Z,90.20
2018-01-15T07:26:07.654Z,90.29
2018-01-15T07:27:07.632Z,90.01
2018-01-15T07:28:07.604Z,90.10
2018-01-15T07:29:07.579Z,90.01
2018-01-15T07:30:07.554Z,89.82
2018-01-15T07:31:07.528Z,90.01
2018-01-15T07:32:07.502Z,89.63
2018-01-15T07:33:07.484Z,90.20
2018-01-15T07:34:07.458Z,89.82
2018-01-15T07:35:07.427Z,90.20
2018-01-15T07:36:07.406Z,89.91
2018-01-15T07:37:07.378Z,90.10
2018-01-15T07:38:07.350Z,89.82
2018-01-15T07:39:07.341Z,90.01
2018-01-15T07:40:07.302Z,90.01
2018-01-15T07:41:07.277Z,90.01
2018-01-15T07:42:07.251Z,89.91
2018-01-15T07:43:07.226Z,90.10
2018-01-15T07:44:07.199Z,90.01
2018-01-15T07:45:07.177Z,90.10
2018-01-15T07:46:07.148Z,90.29
2018-01-15T07:47:07.128Z,90.01
2018-01-15T07:48:07.099Z,89.91
2018-01-15T07:49:07.076Z,90.29
2018-01-15T07:50:07.048Z,89.91
2018-01-15T07:51:07.026Z,90.01
2018-01-15T07:52:07.020Z,90.43
2018-01-15T07:53:06.980Z,89.77
2018-01-15T07:54:06.949Z,90.10
2018-01-15T07:55:07.014Z,90.15
2018-01-15T07:56:06.898Z,89.96
2018-01-15T07:57:06.881Z,90.15
2018-01-15T07:58:06.904Z,89.96
2018-01-15T07:59:06.827Z,90.05
2018-01-15T08:00:06.805Z,90.53
2018-01-15T08:01:06.776Z,90.34
2018-01-15T08:02:06.756Z,90.53
2018-01-15T08:03:06.724Z,90.62
2018-01-15T08:04:06.700Z,90.43
2018-01-15T08:05:06.676Z,90.34
2018-01-15T08:06:06.648Z,90.34
2018-01-15T08:07:06.629Z,90.53
2018-01-15T08:08:06.606Z,90.53
2018-01-15T08:09:06.574Z,90.34
2018-01-15T08:10:06.549Z,90.53
2018-01-15T08:11:06.529Z,90.34
2018-01-15T08:12:06.501Z,90.62
2018-01-15T08:13:06.483Z,90.53
2018-01-15T08:14:06.449Z,90.53
2018-01-15T08:15:06.424Z,90.53
2018-01-15T08:16:06.409Z,90.53
2018-01-15T08:17:06.372Z,90.15
2018-01-15T08:18:06.349Z,89.96
2018-01-15T08:19:06.322Z,90.34
2018-01-15T08:20:06.301Z,90.34
2018-01-15T08:21:06.274Z,90.05
2018-01-15T08:22:06.254Z,90.05
2018-01-15T08:23:06.224Z,90.15
2018-01-15T08:24:06.205Z,89.86
2018-01-15T08:25:06.175Z,89.96
2018-01-15T08:26:06.159Z,90.34
2018-01-15T08:27:06.123Z,90.15
2018-01-15T08:28:06.110Z,90.15
2018-01-15T08:29:06.074Z,89.96
2018-01-15T08:30:06.054Z,89.96
2018-01-15T08:31:06.128Z,90.05
2018-01-15T08:32:06.010Z,90.05
2018-01-15T08:33:05.975Z,90.15
2018-01-15T08:34:06.028Z,90.05
2018-01-15T08:35:05.966Z,90.15
2018-01-15T08:36:05.900Z,90.34
2018-01-15T08:37:05.879Z,90.05
2018-01-15T08:38:05.859Z,89.77
2018-01-15T08:39:05.829Z,89.77
2018-01-15T08:40:05.804Z,90.05
2018-01-15T08:41:05.786Z,89.77
2018-01-15T08:42:05.751Z,89.77
2018-01-15T08:43:05.728Z,89.91
2018-01-15T08:44:05.703Z,89.77
2018-01-15T08:45:05.680Z,89.96
2018-01-15T08:46:05.667Z,89.48
2018-01-15T08:47:05.628Z,89.77
2018-01-15T08:48:05.603Z,90.10
2018-01-15T08:49:05.580Z,89.15
2018-01-15T08:50:05.565Z,89.48
2018-01-15T08:51:05.539Z,89.86
2018-01-15T08:52:05.511Z,89.77
2018-01-15T08:53:05.481Z,89.48
2018-01-15T08:54:05.459Z,89.81
2018-01-15T08:55:05.433Z,89.34
2018-01-15T08:56:05.419Z,89.53
2018-01-15T08:57:05.394Z,89.06
2018-01-15T08:58:05.360Z,89.15
2018-01-15T08:59:05.356Z,89.25
2018-01-15T09:00:05.311Z,89.34
2018-01-15T09:01:05.299Z,89.34
2018-01-15T09:02:05.270Z,89.43
2018-01-15T09:03:05.239Z,89.06
2018-01-15T09:04:05.224Z,88.87
2018-01-15T09:05:05.188Z,88.96
2018-01-15T09:06:05.166Z,88.48
2018-01-15T09:07:05.141Z,88.48
2018-01-15T09:08:05.118Z,88.48
2018-01-15T09:09:05.101Z,87.82
2018-01-15T09:10:05.128Z,88.10
2018-01-15T09:11:05.047Z,87.82
2018-01-15T09:12:05.021Z,87.82
2018-01-15T09:13:04.995Z,88.10
2018-01-15T09:14:04.970Z,88.58
2018-01-15T09:15:04.947Z,88.10
2018-01-15T09:16:04.927Z,88.20
2018-01-15T09:17:04.900Z,87.82
2018-01-15T09:18:04.873Z,88.20
2018-01-15T09:19:04.863Z,88.20
2018-01-15T09:20:04.830Z,88.01
2018-01-15T09:21:04.804Z,87.82
2018-01-15T09:22:04.779Z,88.15
2018-01-15T09:23:04.755Z,88.06
2018-01-15T09:24:04.736Z,87.87
2018-01-15T09:25:04.717Z,87.68
2018-01-15T09:26:04.684Z,87.68
2018-01-15T09:27:04.660Z,87.96
2018-01-15T09:28:04.638Z,87.39
2018-01-15T09:29:04.635Z,87.20
2018-01-15T09:30:04.587Z,87.20
2018-01-15T09:31:04.568Z,86.91
2018-01-15T09:32:04.589Z,86.91
2018-01-15T09:33:04.516Z,86.35
2018-01-15T09:34:04.502Z,86.16
2018-01-15T09:35:04.481Z,86.35
2018-01-15T09:36:04.453Z,86.16
2018-01-15T09:37:04.424Z,86.25
2018-01-15T09:38:04.404Z,86.16
2018-01-15T09:39:04.383Z,86.25
2018-01-15T09:40:04.354Z,86.44
2018-01-15T09:41:04.333Z,86.35
2018-01-15T09:42:04.311Z,86.54
2018-01-15T09:43:04.291Z,86.35
2018-01-15T09:44:04.271Z,86.44
2018-01-15T09:45:04.240Z,86.25
2018-01-15T09:46:04.216Z,86.25
2018-01-15T09:47:04.194Z,86.35
2018-01-15T09:48:04.170Z,86.35
2018-01-15T09:49:04.146Z,86.54
2018-01-15T09:50:04.123Z,86.07
2018-01-15T09:51:04.101Z,86.44
2018-01-15T09:52:04.088Z,86.44
2018-01-15T09:53:04.051Z,86.44
2018-01-15T09:54:04.039Z,85.87
2018-01-15T09:55:04.015Z,86.44
2018-01-15T09:56:03.992Z,86.35
2018-01-15T09:57:03.959Z,86.44
2018-01-15T09:58:03.939Z,86.63
2018-01-15T09:59:03.913Z,86.44
2018-01-15T10:00:03.891Z,86.35
2018-01-15T10:01:03.867Z,86.25
2018-01-15T10:02:03.864Z,86.35
2018-01-15T10:03:03.823Z,86.35
2018-01-15T10:04:03.800Z,85.97
2018-01-15T10:05:03.890Z,85.87
2018-01-15T10:06:03.757Z,85.53
2018-01-15T10:07:03.731Z,85.53
2018-01-15T10:08:03.762Z,85.82
2018-01-15T10:09:03.726Z,85.53
2018-01-15T10:10:03.668Z,85.63
2018-01-15T10:11:03.643Z,85.53
2018-01-15T10:12:03.627Z,85.35
2018-01-15T10:13:03.625Z,84.87
2018-01-15T10:14:03.574Z,84.78
2018-01-15T10:15:03.552Z,84.68
2018-01-15T10:16:03.532Z,84.59
2018-01-15T10:17:03.505Z,84.59
2018-01-15T10:18:03.512Z,84.30
2018-01-15T10:19:03.478Z,84.78
2018-01-15T10:20:03.441Z,84.11
2018-01-15T10:21:03.418Z,84.30
2018-01-15T10:22:03.405Z,84.30
2018-01-15T10:23:03.374Z,84.01
2018-01-15T10:24:03.356Z,84.21
2018-01-15T10:25:03.331Z,84.11
2018-01-15T10:26:03.311Z,84.49
2018-01-15T10:27:03.344Z,84.30
2018-01-15T10:28:03.263Z,84.68
2018-01-15T10:29:03.243Z,84.59
2018-01-15T10:30:03.241Z,85.25
2018-01-15T10:31:03.197Z,85.16
2018-01-15T10:32:03.184Z,84.87
2018-01-15T10:33:03.162Z,84.87
2018-01-15T10:34:03.133Z,84.97
2018-01-15T10:35:03.110Z,85.06
2018-01-15T10:36:03.088Z,84.97
2018-01-15T10:37:03.064Z,84.97
2018-01-15T10:38:03.053Z,84.49
2018-01-15T10:39:03.022Z,84.49
2018-01-15T10:40:03.006Z,84.68
2018-01-15T10:41:02.982Z,84.11
2018-01-15T10:42:02.970Z,84.30
2018-01-15T10:43:02.934Z,84.21
2018-01-15T10:44:02.912Z,84.21
2018-01-15T10:45:02.887Z,84.11
2018-01-15T10:46:02.864Z,84.34
2018-01-15T10:47:02.852Z,84.25
2018-01-15T10:48:02.823Z,84.16
2018-01-15T10:49:02.802Z,84.25
2018-01-15T10:50:02.784Z,84.06
2018-01-15T10:51:02.766Z,83.87
2018-01-15T10:52:02.736Z,83.73
2018-01-15T10:53:02.712Z,84.06
2018-01-15T10:54:02.701Z,84.06
2018-01-15T10:55:02.671Z,83.97
2018-01-15T10:56:02.651Z,84.06
2018-01-15T10:57:02.623Z,84.06
2018-01-15T10:58:02.603Z,84.16
2018-01-15T10:59:02.590Z,83.68
2018-01-15T11:00:02.674Z,83.59
2018-01-15T11:01:02.560Z,83.78
2018-01-15T11:02:02.520Z,83.59
2018-01-15T11:03:02.499Z,83.59
2018-01-15T11:04:02.472Z,83.49
2018-01-15T11:05:02.461Z,82.92
2018-01-15T11:06:02.452Z,82.92
2018-01-15T11:07:02.418Z,83.30
2018-01-15T11:08:02.388Z,83.01
2018-01-15T11:09:02.370Z,82.64
2018-01-15T11:10:02.342Z,82.92
2018-01-15T11:11:02.322Z,82.82
2018-01-15T11:12:02.298Z,83.01
2018-01-15T11:13:02.284Z,82.54
2018-01-15T11:14:02.260Z,82.35
2018-01-15T11:15:02.241Z,82.64
2018-01-15T11:16:02.213Z,82.16
2018-01-15T11:17:02.191Z,81.87
2018-01-15T11:18:02.168Z,82.26
2018-01-15T11:19:02.166Z,82.16
2018-01-15T11:20:02.133Z,81.68
2018-01-15T11:21:02.112Z,81.68
2018-01-15T11:22:02.238Z,81.12
2018-01-15T11:23:02.068Z,81.12
2018-01-15T11:24:02.044Z,81.30
2018-01-15T11:25:02.075Z,81.21
2018-01-15T11:26:01.996Z,81.16
2018-01-15T11:27:01.980Z,80.87
2018-01-15T11:28:01.956Z,80.58
2018-01-15T11:29:01.946Z,80.49
2018-01-15T11:30:01.919Z,80.77
2018-01-15T11:31:01.890Z,80.30
2018-01-15T11:32:01.878Z,80.68
2018-01-15T11:33:01.852Z,80.58
2018-01-15T11:34:01.836Z,80.49
2018-01-15T11:35:01.808Z,80.21
2018-01-15T11:36:01.785Z,80.11
2018-01-15T11:37:01.778Z,80.30
2018-01-15T11:38:01.758Z,80.11
2018-01-15T11:39:01.720Z,80.30
2018-01-15T11:40:01.710Z,80.77
2018-01-15T11:41:01.676Z,80.58
2018-01-15T11:42:01.656Z,80.96
2018-01-15T11:43:01.636Z,80.87
2018-01-15T11:44:01.614Z,81.44
2018-01-15T11:45:01.593Z,81.25
2018-01-15T11:46:01.580Z,81.06
2018-01-15T11:47:01.554Z,81.16
2018-01-15T11:48:01.533Z,81.73
2018-01-15T11:49:01.509Z,81.35
2018-01-15T11:50:01.489Z,81.63
2018-01-15T11:51:01.468Z,81.35
2018-01-15T11:52:01.468Z,81.44
2018-01-15T11:53:01.431Z,81.44
2018-01-15T11:54:01.418Z,81.44
2018-01-15T11:55:01.388Z,81.54
2018-01-15T11:56:01.363Z,81.92
2018-01-15T11:57:01.340Z,81.92
2018-01-15T11:58:01.372Z,81.35
2018-01-15T11:59:01.297Z,81.35
2018-01-15T12:00:01.284Z,81.44
2018-01-15T12:01:01.257Z,81.35
2018-01-15T12:02:01.234Z,81.06
2018-01-15T12:03:01.218Z,81.35
2018-01-15T12:04:01.191Z,81.16
2018-01-15T12:05:01.186Z,81.44
2018-01-15T12:06:01.153Z,81.06
2018-01-15T12:07:01.139Z,81.44
2018-01-15T12:08:01.110Z,81.63
2018-01-15T12:09:01.085Z,81.63
2018-01-15T12:10:01.066Z,81.92
2018-01-15T12:11:01.042Z,81.73
2018-01-15T12:12:01.023Z,81.54
2018-01-15T12:13:01.008Z,81.35
2018-01-15T12:14:01.053Z,81.16
2018-01-15T12:15:00.962Z,81.82
2018-01-15T12:16:00.952Z,82.01
2018-01-15T12:17:00.945Z,81.92
2018-01-15T12:18:00.902Z,82.10
2018-01-15T12:19:00.878Z,82.20
2018-01-15T12:20:00.866Z,82.10
2018-01-15T12:21:00.835Z,82.10
2018-01-15T12:22:00.820Z,82.10
2018-01-15T12:23:00.793Z,82.58
2018-01-15T12:24:00.771Z,82.68
2018-01-15T12:25:00.758Z,82.87
2018-01-15T12:26:00.730Z,82.58
2018-01-15T12:27:00.711Z,82.39
2018-01-15T12:28:00.689Z,82.49
2018-01-15T12:29:00.664Z,82.96
2018-01-15T12:30:00.659Z,82.58
2018-01-15T12:31:00.632Z,82.68
2018-01-15T12:32:00.604Z,82.68
2018-01-15T12:33:00.578Z,82.29
2018-01-15T12:34:00.566Z,82.20
2018-01-15T12:35:00.548Z,82.68
2018-01-15T12:36:00.518Z,82.39
2018-01-15T12:37:00.497Z,82.68
2018-01-15T12:38:00.473Z,82.68
2018-01-15T12:39:00.451Z,82.49
2018-01-15T12:40:00.430Z,82.58
2018-01-15T12:41:00.419Z,82.77
2018-01-15T12:42:00.389Z,82.49
2018-01-15T12:43:00.367Z,82.39
2018-01-15T12:44:00.358Z,82.58
2018-01-15T12:45:00.327Z,82.39
2018-01-15T12:46:00.310Z,82.68
2018-01-15T12:47:00.416Z,82.77
2018-01-15T12:48:00.261Z,82.77
2018-01-15T12:49:00.248Z,83.06
2018-01-15T12:50:00.270Z,83.06
2018-01-15T12:51:00.198Z,82.87
2018-01-15T12:52:00.176Z,82.77